Time;durP1;ratioP1;P1;durP2;ratioP2;P2;SDS_P1;SDS_P2;PMS_P1;PMS_P2;Temp;Humidity;BMP_temperature;BMP_pressure;BME280_temperature;BME280_humidity;BME280_pressure;Samples;Min_cycle;Max_cycle;Signal;HPM_P1;HPM_P2
2023/12/22 00:02:08;;;;;;;2.47;1.10;;;6.00;99.90;;;;;;5008143;28;20207;-83
2023/12/22 00:04:36;;;;;;;3.93;1.27;;;6.00;99.90;;;;;;5006769;28;20951;-84
2023/12/22 00:07:04;;;;;;;3.83;1.40;;;6.10;99.90;;;;;;5002709;28;20243;-83
2023/12/22 00:09:30;;;;;;;2.60;1.20;;;6.20;99.90;;;;;;5004967;28;20192;-83
2023/12/22 00:11:57;;;;;;;2.37;1.20;;;6.20;99.90;;;;;;5003938;28;20202;-82
2023/12/22 00:14:24;;;;;;;1.67;1.20;;;6.20;99.90;;;;;;5007329;28;20199;-83
2023/12/22 00:16:51;;;;;;;1.63;0.93;;;6.30;99.90;;;;;;5006886;28;20241;-81
2023/12/22 00:19:18;;;;;;;1.57;1.03;;;5.80;99.70;;;;;;5008247;28;20721;-84
2023/12/22 00:21:47;;;;;;;1.20;0.67;;;5.10;99.30;;;;;;5003915;28;20200;-87
2023/12/22 00:24:14;;;;;;;1.83;0.60;;;4.10;99.90;;;;;;5004276;28;20587;-85
2023/12/22 00:26:41;;;;;;;1.10;0.80;;;3.50;99.90;;;;;;5007440;28;20207;-85
2023/12/22 00:29:08;;;;;;;0.90;0.60;;;3.10;99.90;;;;;;5008449;28;20202;-84
2023/12/22 00:31:35;;;;;;;0.60;0.60;;;2.90;99.90;;;;;;5006147;28;20196;-84
2023/12/22 00:34:02;;;;;;;2.27;0.80;;;2.90;99.90;;;;;;5004224;28;20207;-84
2023/12/22 00:36:29;;;;;;;0.53;0.53;;;2.80;99.90;;;;;;5008860;28;20229;-84
2023/12/22 00:39:01;;;;;;;0.73;0.73;;;2.70;99.90;;;;;;5005916;28;20202;-84
2023/12/22 00:41:28;;;;;;;0.43;0.43;;;2.70;99.90;;;;;;5003896;28;20231;-85
2023/12/22 00:43:55;;;;;;;0.50;0.50;;;2.70;99.90;;;;;;5007385;28;20199;-84
2023/12/22 00:46:26;;;;;;;0.80;0.60;;;2.70;99.90;;;;;;5007791;28;20191;-85
2023/12/22 00:48:52;;;;;;;1.03;0.60;;;2.70;99.90;;;;;;5003789;28;20310;-85
2023/12/22 00:51:20;;;;;;;0.60;0.60;;;2.80;99.90;;;;;;5007284;28;20203;-85
2023/12/22 00:53:46;;;;;;;1.10;0.80;;;2.80;99.90;;;;;;5009094;28;20285;-84
2023/12/22 00:56:15;;;;;;;0.50;0.50;;;2.80;99.90;;;;;;5010276;28;20219;-84
2023/12/22 00:58:42;;;;;;;0.93;0.80;;;2.90;99.90;;;;;;5007063;28;20210;-84
2023/12/22 01:01:08;;;;;;;0.70;0.70;;;2.90;99.90;;;;;;5010783;28;20195;-84
2023/12/22 01:03:35;;;;;;;0.77;0.70;;;2.80;99.90;;;;;;5002731;28;20218;-84
2023/12/22 01:06:02;;;;;;;0.70;0.63;;;2.70;99.90;;;;;;5010041;28;20207;-84
2023/12/22 01:08:29;;;;;;;1.50;1.00;;;2.70;99.90;;;;;;5006370;28;20215;-84
2023/12/22 01:10:56;;;;;;;0.87;0.70;;;2.80;99.90;;;;;;5003352;28;20852;-85
2023/12/22 01:13:24;;;;;;;1.90;0.70;;;2.90;99.90;;;;;;5002325;28;20202;-85
2023/12/22 01:15:51;;;;;;;1.10;0.80;;;2.90;99.90;;;;;;5006204;28;20226;-85
2023/12/22 01:18:18;;;;;;;0.70;0.70;;;2.90;99.90;;;;;;5006403;28;20574;-85
2023/12/22 01:20:49;;;;;;;0.90;0.80;;;2.80;99.90;;;;;;5005057;28;20204;-85
2023/12/22 01:23:16;;;;;;;3.43;0.70;;;2.90;99.90;;;;;;5001064;28;20200;-85
2023/12/22 01:25:43;;;;;;;1.67;0.70;;;2.90;99.90;;;;;;5007212;28;20214;-84
2023/12/22 01:28:09;;;;;;;1.93;0.77;;;2.90;99.90;;;;;;5001112;28;20196;-85
2023/12/22 01:30:38;;;;;;;1.00;0.73;;;2.90;99.90;;;;;;5009290;28;20282;-86
2023/12/22 01:33:05;;;;;;;3.03;0.90;;;3.00;99.90;;;;;;5004319;28;20203;-86
2023/12/22 01:35:32;;;;;;;2.50;0.70;;;2.90;99.90;;;;;;5004767;28;20219;-85
2023/12/22 01:37:59;;;;;;;1.20;0.77;;;2.90;99.90;;;;;;5002030;28;20219;-86
2023/12/22 01:40:26;;;;;;;1.90;1.00;;;3.00;99.90;;;;;;5005469;28;20204;-85
2023/12/22 01:42:52;;;;;;;2.17;1.03;;;2.90;99.90;;;;;;5015272;28;20206;-85
2023/12/22 01:45:19;;;;;;;0.70;0.70;;;2.90;99.90;;;;;;5006867;28;20211;-85
2023/12/22 01:47:48;;;;;;;0.77;0.70;;;2.80;99.90;;;;;;5011386;28;20206;-85
2023/12/22 01:50:15;;;;;;;1.57;0.73;;;2.80;99.90;;;;;;5002090;28;20199;-85
2023/12/22 01:52:44;;;;;;;1.10;0.80;;;2.80;99.90;;;;;;5012419;28;20223;-84
2023/12/22 01:55:12;;;;;;;1.50;0.70;;;2.70;99.90;;;;;;5005334;28;20200;-84
2023/12/22 01:57:40;;;;;;;0.80;0.80;;;2.60;99.90;;;;;;5004652;28;20250;-84
2023/12/22 02:00:08;;;;;;;0.70;0.70;;;2.50;99.90;;;;;;5002927;28;20349;-84
2023/12/22 02:02:35;;;;;;;0.70;0.70;;;2.50;99.90;;;;;;5007682;28;20282;-84
2023/12/22 02:05:04;;;;;;;0.80;0.80;;;2.50;99.90;;;;;;5006077;28;20215;-84
2023/12/22 02:07:31;;;;;;;1.00;0.60;;;2.40;99.90;;;;;;5006672;28;20203;-84
2023/12/22 02:09:58;;;;;;;1.10;0.67;;;2.30;99.90;;;;;;5007191;28;20239;-83
2023/12/22 02:12:25;;;;;;;0.63;0.63;;;2.30;99.90;;;;;;5002779;28;20199;-84
2023/12/22 02:14:52;;;;;;;1.03;0.87;;;2.30;99.90;;;;;;5007196;28;20191;-84
2023/12/22 02:17:25;;;;;;;0.50;0.50;;;2.30;99.90;;;;;;5008959;28;20242;-84
2023/12/22 02:19:55;;;;;;;0.70;0.70;;;2.30;99.90;;;;;;5002634;28;20215;-83
2023/12/22 02:22:24;;;;;;;0.50;0.50;;;2.30;99.90;;;;;;4996937;28;20196;-84
2023/12/22 02:24:52;;;;;;;0.70;0.70;;;2.30;99.90;;;;;;5007217;28;20214;-83
2023/12/22 02:27:34;;;;;;;0.50;0.50;;;2.30;99.90;;;;;;5011157;28;20196;-83
2023/12/22 02:30:16;;;;;;;0.80;0.80;;;2.20;99.90;;;;;;5001298;28;20223;-83
2023/12/22 02:32:48;;;;;;;0.50;0.50;;;2.30;99.90;;;;;;5006454;28;20201;-84
2023/12/22 02:35:18;;;;;;;0.53;0.53;;;2.20;99.90;;;;;;5011221;28;20195;-83
2023/12/22 02:37:47;;;;;;;0.50;0.50;;;2.10;99.90;;;;;;5009727;28;20191;-82
2023/12/22 02:40:17;;;;;;;0.50;0.50;;;2.10;99.90;;;;;;5012280;28;20203;-83
2023/12/22 02:42:45;;;;;;;0.83;0.50;;;2.00;99.90;;;;;;5011664;28;20286;-83
2023/12/22 02:45:15;;;;;;;0.60;0.60;;;2.10;99.90;;;;;;5007249;28;20195;-83
2023/12/22 02:47:42;;;;;;;0.50;0.50;;;2.10;99.90;;;;;;5014678;28;20203;-83
2023/12/22 02:50:09;;;;;;;0.70;0.70;;;2.20;99.90;;;;;;5008073;28;20199;-83
2023/12/22 02:52:36;;;;;;;0.83;0.43;;;2.20;99.90;;;;;;5013224;28;20571;-83
2023/12/22 02:55:03;;;;;;;0.67;0.67;;;2.30;99.90;;;;;;5012956;28;20226;-83
2023/12/22 02:57:32;;;;;;;0.50;0.50;;;2.30;99.90;;;;;;5004321;28;20219;-83
2023/12/22 02:59:59;;;;;;;1.10;0.60;;;2.30;99.90;;;;;;5010152;28;20203;-83
2023/12/22 03:02:26;;;;;;;0.83;0.50;;;2.40;99.90;;;;;;5009604;28;20207;-83
2023/12/22 03:04:53;;;;;;;0.60;0.60;;;2.40;99.90;;;;;;5004170;28;20224;-83
2023/12/22 03:07:19;;;;;;;0.40;0.40;;;2.50;99.90;;;;;;5008056;28;20203;-83
2023/12/22 03:09:46;;;;;;;0.57;0.57;;;2.50;99.90;;;;;;5009973;28;20206;-83
2023/12/22 03:12:13;;;;;;;0.50;0.50;;;2.50;99.90;;;;;;5010968;28;20191;-83
2023/12/22 03:14:41;;;;;;;0.60;0.60;;;2.50;99.90;;;;;;5008841;28;20196;-83
2023/12/22 03:17:09;;;;;;;1.43;0.60;;;2.50;99.90;;;;;;5004973;28;20250;-83
2023/12/22 03:19:36;;;;;;;0.70;0.70;;;2.50;99.90;;;;;;5009126;28;20577;-85
2023/12/22 03:22:04;;;;;;;0.67;0.67;;;2.50;99.90;;;;;;5012631;28;20211;-85
2023/12/22 03:24:31;;;;;;;0.63;0.63;;;2.50;99.90;;;;;;5007789;28;20200;-85
2023/12/22 03:26:57;;;;;;;0.60;0.60;;;2.60;99.90;;;;;;5012459;28;20289;-85
2023/12/22 03:29:24;;;;;;;0.80;0.80;;;2.60;99.90;;;;;;5011484;28;20562;-85
2023/12/22 03:31:53;;;;;;;0.83;0.83;;;2.70;99.90;;;;;;5010667;28;20214;-85
2023/12/22 03:34:19;;;;;;;0.53;0.53;;;2.80;99.90;;;;;;5008721;28;20857;-85
2023/12/22 03:36:48;;;;;;;0.60;0.60;;;2.90;99.90;;;;;;5010531;28;20219;-85
2023/12/22 03:39:15;;;;;;;0.60;0.60;;;2.90;99.90;;;;;;5013878;28;20196;-85
2023/12/22 03:41:42;;;;;;;0.60;0.60;;;2.80;99.90;;;;;;5011580;28;20297;-85
2023/12/22 03:44:09;;;;;;;0.50;0.50;;;2.80;99.90;;;;;;5005683;28;20579;-85
2023/12/22 03:46:36;;;;;;;0.60;0.60;;;2.90;99.90;;;;;;5007381;28;20230;-85
2023/12/22 03:49:04;;;;;;;0.60;0.60;;;2.90;99.90;;;;;;5011676;28;20821;-85
2023/12/22 03:51:31;;;;;;;0.80;0.80;;;2.90;99.90;;;;;;5007674;28;20218;-85
2023/12/22 03:53:58;;;;;;;0.70;0.70;;;2.80;99.90;;;;;;5004294;28;20200;-85
2023/12/22 03:56:24;;;;;;;0.70;0.50;;;2.80;99.90;;;;;;5011010;28;20761;-85
2023/12/22 03:58:51;;;;;;;0.80;0.80;;;2.90;99.90;;;;;;5010587;28;20204;-85
2023/12/22 04:01:18;;;;;;;1.13;0.90;;;2.90;99.90;;;;;;5012251;28;20204;-85
2023/12/22 04:03:45;;;;;;;0.67;0.67;;;2.90;99.90;;;;;;5010845;28;20217;-85
2023/12/22 04:06:13;;;;;;;0.73;0.70;;;3.00;99.90;;;;;;5007974;28;20300;-85
2023/12/22 04:08:40;;;;;;;1.30;0.70;;;3.10;99.90;;;;;;5004717;28;20255;-85
2023/12/22 04:11:07;;;;;;;1.87;0.93;;;3.20;99.90;;;;;;5010579;28;20199;-85
2023/12/22 04:13:34;;;;;;;1.80;0.80;;;3.30;99.90;;;;;;5006412;28;20204;-85
2023/12/22 04:16:04;;;;;;;2.23;0.80;;;3.50;99.90;;;;;;5010453;28;20196;-85
2023/12/22 04:18:31;;;;;;;3.50;1.00;;;3.70;99.90;;;;;;5011123;28;20733;-85
2023/12/22 04:20:58;;;;;;;2.70;1.03;;;3.90;99.90;;;;;;5007158;28;20199;-85
2023/12/22 04:23:26;;;;;;;2.40;1.00;;;4.00;99.90;;;;;;5004257;28;20550;-85
2023/12/22 04:25:53;;;;;;;3.00;0.90;;;4.10;99.90;;;;;;5011865;28;20200;-85
2023/12/22 04:28:20;;;;;;;2.80;0.90;;;4.30;99.90;;;;;;5005704;28;20656;-84
2023/12/22 04:30:47;;;;;;;2.93;1.03;;;4.40;99.90;;;;;;5008255;28;20226;-83
2023/12/22 04:33:13;;;;;;;1.97;0.77;;;4.50;99.90;;;;;;5008624;28;20203;-84
2023/12/22 04:35:40;;;;;;;2.50;0.90;;;4.50;99.90;;;;;;5009886;28;20214;-83
2023/12/22 04:38:07;;;;;;;1.53;0.90;;;4.40;99.90;;;;;;5008908;28;20230;-83
2023/12/22 04:40:35;;;;;;;0.70;0.70;;;4.50;99.90;;;;;;5008458;28;20207;-83
2023/12/22 04:43:02;;;;;;;2.03;1.00;;;4.60;99.90;;;;;;5008508;28;20207;-83
2023/12/22 04:45:29;;;;;;;3.60;0.80;;;4.70;99.90;;;;;;5005833;28;20203;-83
2023/12/22 04:47:56;;;;;;;1.63;0.90;;;4.70;99.90;;;;;;5003848;28;20201;-83
2023/12/22 04:50:23;;;;;;;1.53;0.80;;;4.70;99.90;;;;;;5008326;28;20291;-83
2023/12/22 04:52:50;;;;;;;2.63;1.00;;;4.70;99.90;;;;;;5006314;28;20216;-83
2023/12/22 04:55:17;;;;;;;2.50;1.07;;;4.80;99.90;;;;;;5003271;28;20206;-83
2023/12/22 04:57:45;;;;;;;3.60;1.50;;;4.90;99.90;;;;;;5006275;28;20226;-83
2023/12/22 05:00:13;;;;;;;1.90;0.90;;;4.80;99.90;;;;;;5007782;28;20204;-83
2023/12/22 05:02:41;;;;;;;4.17;1.70;;;4.90;99.90;;;;;;5002973;28;20233;-83
2023/12/22 05:05:08;;;;;;;3.00;1.40;;;5.00;99.90;;;;;;5010395;28;20215;-83
2023/12/22 05:07:35;;;;;;;4.47;1.20;;;5.10;99.90;;;;;;5016979;28;20206;-83
2023/12/22 05:10:02;;;;;;;2.40;1.10;;;5.10;99.90;;;;;;5008140;28;20667;-83
2023/12/22 05:12:29;;;;;;;3.03;1.07;;;5.10;99.90;;;;;;5012079;28;20569;-82
2023/12/22 05:14:57;;;;;;;3.80;1.10;;;5.20;99.90;;;;;;5004669;28;20204;-83
2023/12/22 05:17:24;;;;;;;2.10;1.23;;;5.20;99.90;;;;;;5008164;28;20679;-83
2023/12/22 05:19:51;;;;;;;2.70;1.17;;;5.30;99.90;;;;;;5001138;28;20195;-83
2023/12/22 05:22:18;;;;;;;2.50;1.00;;;5.30;99.90;;;;;;5006393;28;20206;-83
2023/12/22 05:24:44;;;;;;;2.43;1.30;;;5.40;99.90;;;;;;5003030;28;20196;-83
2023/12/22 05:27:11;;;;;;;3.07;1.20;;;5.40;99.90;;;;;;5007161;28;20218;-82
2023/12/22 05:29:38;;;;;;;3.97;1.10;;;5.50;99.90;;;;;;5006874;28;20206;-82
2023/12/22 05:32:07;;;;;;;2.03;1.03;;;5.60;99.90;;;;;;5006310;28;20203;-83
2023/12/22 05:34:34;;;;;;;1.60;1.00;;;5.60;99.90;;;;;;5005915;28;20562;-82
2023/12/22 05:37:01;;;;;;;2.17;1.00;;;5.70;99.90;;;;;;5011548;28;20215;-82
2023/12/22 05:39:28;;;;;;;3.77;1.17;;;5.70;99.70;;;;;;5005448;28;20211;-82
2023/12/22 05:41:55;;;;;;;1.73;1.00;;;5.70;99.60;;;;;;5008560;28;20206;-83
2023/12/22 05:44:22;;;;;;;3.83;1.20;;;5.80;99.20;;;;;;5007680;28;20198;-81
2023/12/22 05:46:49;;;;;;;2.27;1.20;;;5.80;99.20;;;;;;5010037;28;20196;-82
2023/12/22 05:49:17;;;;;;;2.83;1.10;;;5.80;99.20;;;;;;5007324;28;20203;-82
2023/12/22 05:51:44;;;;;;;2.80;1.00;;;5.70;99.60;;;;;;5004765;28;20203;-84
2023/12/22 05:54:11;;;;;;;2.20;1.00;;;5.70;99.90;;;;;;5003474;28;20195;-84
2023/12/22 05:56:38;;;;;;;2.73;1.07;;;5.60;99.90;;;;;;5002503;28;20227;-82
2023/12/22 05:59:05;;;;;;;1.83;1.10;;;5.50;99.90;;;;;;5007730;28;20206;-83
2023/12/22 06:01:33;;;;;;;3.33;1.10;;;5.40;99.90;;;;;;5008854;28;20624;-83
2023/12/22 06:04:00;;;;;;;2.87;1.00;;;5.40;99.90;;;;;;4998505;28;20229;-83
2023/12/22 06:06:29;;;;;;;2.37;1.00;;;5.20;99.90;;;;;;5004207;28;20200;-84
2023/12/22 06:08:56;;;;;;;2.17;1.10;;;5.20;99.90;;;;;;5001060;28;20199;-84
2023/12/22 06:11:23;;;;;;;2.43;0.90;;;5.10;99.90;;;;;;5003849;28;20202;-84
2023/12/22 06:13:50;;;;;;;2.83;1.20;;;5.00;99.90;;;;;;5005612;28;20286;-84
2023/12/22 06:16:18;;;;;;;3.63;1.00;;;4.90;99.90;;;;;;5004335;28;20202;-84
2023/12/22 06:18:45;;;;;;;3.33;1.00;;;4.90;99.90;;;;;;5003639;28;20238;-84
2023/12/22 06:21:12;;;;;;;2.33;1.17;;;5.00;99.90;;;;;;5004796;28;20203;-85
2023/12/22 06:23:40;;;;;;;1.43;1.17;;;4.90;99.90;;;;;;5002379;28;20203;-84
2023/12/22 06:26:10;;;;;;;2.03;1.20;;;4.90;99.90;;;;;;5006188;28;20199;-85
2023/12/22 06:28:38;;;;;;;3.60;1.10;;;4.90;99.90;;;;;;5010752;28;20210;-84
2023/12/22 06:31:05;;;;;;;1.77;1.10;;;4.80;99.90;;;;;;5005957;28;20257;-84
2023/12/22 06:33:31;;;;;;;2.53;1.07;;;4.80;99.90;;;;;;5008351;28;20207;-84
2023/12/22 06:35:58;;;;;;;1.50;0.93;;;4.90;99.90;;;;;;5005804;28;20207;-83
2023/12/22 06:38:25;;;;;;;2.30;1.10;;;4.90;99.90;;;;;;5006710;28;20231;-84
2023/12/22 06:40:54;;;;;;;1.57;1.30;;;4.90;99.90;;;;;;5005909;28;20195;-84
2023/12/22 06:43:21;;;;;;;3.43;1.40;;;4.90;99.90;;;;;;5007924;28;20195;-84
2023/12/22 06:45:48;;;;;;;3.83;1.17;;;4.90;99.90;;;;;;5005281;28;20210;-83
2023/12/22 06:48:15;;;;;;;2.63;0.97;;;4.90;99.90;;;;;;5010449;28;20221;-84
2023/12/22 06:50:44;;;;;;;2.60;1.30;;;5.10;99.90;;;;;;5002226;28;20199;-84
2023/12/22 06:53:11;;;;;;;6.43;1.40;;;5.10;99.90;;;;;;5006625;28;20215;-84
2023/12/22 06:55:38;;;;;;;2.83;1.30;;;5.20;99.90;;;;;;5006967;28;20203;-85
2023/12/22 06:58:06;;;;;;;3.43;1.40;;;5.20;99.90;;;;;;5004239;28;20589;-84
2023/12/22 07:00:33;;;;;;;4.40;1.40;;;5.30;99.90;;;;;;5008429;28;20302;-83
2023/12/22 07:02:59;;;;;;;4.83;1.67;;;5.30;99.90;;;;;;5008784;28;20751;-85
2023/12/22 07:05:37;;;;;;;3.50;1.30;;;5.40;99.90;;;;;;5010379;28;20227;-84
2023/12/22 07:08:06;;;;;;;2.13;1.13;;;5.50;99.90;;;;;;5003257;28;20599;-84
2023/12/22 07:10:32;;;;;;;3.30;1.07;;;5.50;99.90;;;;;;5004520;28;20258;-84
2023/12/22 07:12:59;;;;;;;2.07;1.10;;;5.50;99.90;;;;;;5003462;28;20200;-84
2023/12/22 07:15:28;;;;;;;2.80;1.17;;;5.60;99.90;;;;;;5012186;28;20203;-84
2023/12/22 07:17:55;;;;;;;4.70;1.40;;;5.60;99.90;;;;;;5010378;28;20729;-85
2023/12/22 07:20:22;;;;;;;2.97;1.30;;;5.60;99.90;;;;;;5010237;28;20679;-86
2023/12/22 07:22:48;;;;;;;5.87;1.40;;;5.60;99.90;;;;;;5012574;28;20199;-85
2023/12/22 07:25:15;;;;;;;3.13;1.30;;;5.70;99.90;;;;;;5007112;28;20291;-83
2023/12/22 07:27:42;;;;;;;3.13;1.43;;;5.70;99.90;;;;;;5010875;28;20211;-84
2023/12/22 07:30:15;;;;;;;2.67;1.50;;;5.60;99.90;;;;;;5002596;28;20199;-84
2023/12/22 07:32:45;;;;;;;4.43;1.57;;;5.50;99.90;;;;;;5009972;28;20203;-84
2023/12/22 07:35:11;;;;;;;5.13;1.60;;;5.50;99.90;;;;;;5009457;28;20216;-85
2023/12/22 07:37:38;;;;;;;5.10;1.53;;;5.40;99.90;;;;;;5004714;28;20231;-85
2023/12/22 07:40:07;;;;;;;2.90;1.10;;;5.30;99.90;;;;;;5011868;28;20196;-85
2023/12/22 07:42:33;;;;;;;4.97;1.33;;;5.20;99.90;;;;;;5003074;28;20253;-85
2023/12/22 07:45:00;;;;;;;3.03;1.47;;;5.20;99.90;;;;;;5011721;28;20195;-84
2023/12/22 07:47:27;;;;;;;8.63;4.70;;;5.20;99.90;;;;;;5002865;28;20212;-84
2023/12/22 07:49:55;;;;;;;7.07;3.30;;;5.20;99.90;;;;;;5006418;28;20204;-84
2023/12/22 07:52:22;;;;;;;5.03;2.30;;;5.20;99.90;;;;;;5015164;28;20552;-85
2023/12/22 07:54:49;;;;;;;6.23;2.53;;;5.30;99.90;;;;;;5008665;28;20200;-85
2023/12/22 07:57:16;;;;;;;5.20;1.60;;;5.40;99.90;;;;;;5010877;28;20203;-84
2023/12/22 07:59:42;;;;;;;2.97;1.40;;;5.50;99.90;;;;;;5006312;28;20216;-84
2023/12/22 08:02:09;;;;;;;4.30;1.70;;;5.60;99.90;;;;;;5012178;28;20226;-84
2023/12/22 08:04:36;;;;;;;5.70;2.20;;;5.70;99.90;;;;;;5010528;28;20219;-84
2023/12/22 08:07:05;;;;;;;3.57;1.50;;;5.80;99.90;;;;;;5004797;28;20204;-84
2023/12/22 08:09:32;;;;;;;3.07;1.40;;;5.80;99.90;;;;;;5005922;28;20204;-83
2023/12/22 08:11:59;;;;;;;3.30;1.43;;;5.90;99.90;;;;;;5010896;28;20328;-83
2023/12/22 08:14:26;;;;;;;3.07;1.47;;;5.90;99.90;;;;;;5009413;28;20211;-83
2023/12/22 08:16:53;;;;;;;3.50;1.50;;;5.90;99.90;;;;;;5011380;28;20191;-83
2023/12/22 08:19:20;;;;;;;6.30;1.40;;;5.90;99.80;;;;;;5011842;28;20698;-83
2023/12/22 08:21:47;;;;;;;5.67;1.70;;;5.90;99.90;;;;;;5010077;28;20211;-84
2023/12/22 08:24:17;;;;;;;3.43;1.57;;;5.90;99.90;;;;;;5004772;28;20203;-83
2023/12/22 08:26:43;;;;;;;1.70;1.10;;;5.70;99.90;;;;;;5006017;28;20296;-83
2023/12/22 08:29:10;;;;;;;2.53;1.10;;;5.50;99.90;;;;;;5005386;28;20200;-83
2023/12/22 08:31:37;;;;;;;4.23;1.43;;;5.40;99.90;;;;;;5012800;28;20203;-84
2023/12/22 08:34:05;;;;;;;4.17;1.27;;;5.30;99.90;;;;;;5009428;28;20203;-83
2023/12/22 08:36:32;;;;;;;3.43;1.20;;;5.20;99.90;;;;;;5006766;28;20237;-84
2023/12/22 08:38:59;;;;;;;5.47;1.37;;;5.10;99.90;;;;;;5004425;28;20223;-83
2023/12/22 08:41:27;;;;;;;4.93;1.60;;;5.10;99.90;;;;;;5001646;28;20203;-84
2023/12/22 08:43:54;;;;;;;4.30;1.50;;;5.10;99.90;;;;;;5009006;28;21007;-84
2023/12/22 08:46:20;;;;;;;4.93;1.67;;;5.10;99.90;;;;;;5009031;28;20198;-84
2023/12/22 08:48:47;;;;;;;2.87;1.33;;;5.20;99.90;;;;;;5009952;28;20211;-83
2023/12/22 08:51:14;;;;;;;3.20;1.70;;;5.40;99.90;;;;;;5004746;28;20571;-83
2023/12/22 08:53:41;;;;;;;3.83;1.33;;;5.40;99.90;;;;;;5004169;28;20854;-83
2023/12/22 08:56:08;;;;;;;3.43;1.20;;;5.50;99.90;;;;;;5007870;28;20207;-83
2023/12/22 08:58:36;;;;;;;1.67;1.20;;;5.50;99.90;;;;;;5006718;28;20223;-83
2023/12/22 09:01:03;;;;;;;4.17;1.37;;;5.40;99.90;;;;;;5010840;28;20195;-83
2023/12/22 09:03:33;;;;;;;2.07;1.20;;;5.50;99.90;;;;;;5011908;28;20214;-83
2023/12/22 09:06:00;;;;;;;3.27;1.80;;;5.50;99.90;;;;;;5007603;28;20222;-83
2023/12/22 09:08:27;;;;;;;5.60;1.60;;;5.50;99.90;;;;;;5010974;28;20214;-82
2023/12/22 09:10:54;;;;;;;5.27;1.73;;;5.50;99.90;;;;;;5000183;28;20218;-83
2023/12/22 09:13:21;;;;;;;2.90;1.40;;;5.60;99.90;;;;;;5011412;28;20743;-82
2023/12/22 09:15:49;;;;;;;4.37;1.50;;;5.60;99.90;;;;;;5006415;28;20202;-82
2023/12/22 09:18:15;;;;;;;2.53;1.47;;;5.90;99.90;;;;;;5003994;28;20220;-82
2023/12/22 09:20:42;;;;;;;3.10;1.40;;;6.00;99.90;;;;;;5004548;28;20210;-82
2023/12/22 09:23:10;;;;;;;5.90;1.60;;;6.00;99.90;;;;;;5007870;28;20227;-82
2023/12/22 09:25:37;;;;;;;3.77;1.63;;;6.00;99.90;;;;;;5007495;28;20522;-83
2023/12/22 09:28:04;;;;;;;7.90;2.00;;;6.00;99.90;;;;;;5007521;28;20273;-82
2023/12/22 09:30:31;;;;;;;3.37;1.50;;;6.10;99.90;;;;;;5006399;28;20223;-83
2023/12/22 09:32:59;;;;;;;4.43;1.40;;;6.20;99.90;;;;;;5000051;28;20196;-83
2023/12/22 09:35:26;;;;;;;6.50;1.60;;;6.20;99.90;;;;;;5001495;28;20210;-82
2023/12/22 09:37:54;;;;;;;5.23;1.43;;;6.20;99.90;;;;;;5007652;28;20223;-90
2023/12/22 09:40:21;;;;;;;3.07;1.47;;;6.20;99.90;;;;;;5000549;28;20199;-83
2023/12/22 09:42:50;;;;;;;4.47;1.60;;;6.30;99.90;;;;;;5005676;28;20199;-85
2023/12/22 09:45:19;;;;;;;4.30;1.40;;;6.40;99.80;;;;;;5007211;28;20199;-83
2023/12/22 09:47:47;;;;;;;2.77;1.40;;;6.40;99.40;;;;;;5008389;28;20294;-84
2023/12/22 09:50:16;;;;;;;4.27;1.37;;;6.40;99.00;;;;;;5007460;28;20191;-83
2023/12/22 09:52:45;;;;;;;4.43;1.30;;;6.50;99.00;;;;;;5006900;28;20196;-83
2023/12/22 09:55:13;;;;;;;4.00;1.53;;;6.40;98.70;;;;;;5006044;28;20685;-83
2023/12/22 09:57:40;;;;;;;2.63;1.03;;;6.40;98.70;;;;;;5007186;28;20199;-83
2023/12/22 10:00:11;;;;;;;2.63;0.90;;;6.30;98.60;;;;;;5008768;28;20202;-83
2023/12/22 10:02:38;;;;;;;3.17;1.10;;;6.30;98.60;;;;;;5001723;28;20211;-83
2023/12/22 10:05:05;;;;;;;2.17;1.10;;;6.30;98.50;;;;;;5003490;28;20215;-83
2023/12/22 10:07:33;;;;;;;1.87;1.10;;;6.30;98.80;;;;;;5001221;28;20199;-83
2023/12/22 10:10:02;;;;;;;1.80;1.00;;;6.20;98.80;;;;;;5005933;28;20722;-85
2023/12/22 10:12:31;;;;;;;2.20;0.90;;;6.10;99.60;;;;;;5004559;28;20203;-83
2023/12/22 10:15:01;;;;;;;0.80;0.80;;;5.90;99.50;;;;;;5004674;28;20572;-83
2023/12/22 10:17:29;;;;;;;1.63;0.80;;;5.70;99.90;;;;;;5001079;28;20322;-81
2023/12/22 10:19:56;;;;;;;1.10;0.90;;;5.60;99.90;;;;;;5005150;28;20227;-88
2023/12/22 10:22:23;;;;;;;1.00;0.60;;;5.40;99.90;;;;;;5004283;28;20208;-82
2023/12/22 10:24:52;;;;;;;2.77;0.80;;;5.20;99.90;;;;;;5008970;28;20195;-86
2023/12/22 10:27:22;;;;;;;0.77;0.70;;;5.10;99.90;;;;;;5007263;28;20639;-84
2023/12/22 10:29:50;;;;;;;0.90;0.70;;;5.00;99.90;;;;;;5008957;28;20326;-84
2023/12/22 10:32:17;;;;;;;1.07;0.87;;;4.90;99.90;;;;;;5005851;28;20203;-84
2023/12/22 10:34:44;;;;;;;1.40;0.90;;;4.90;99.90;;;;;;5006336;28;20270;-84
2023/12/22 10:37:12;;;;;;;1.33;0.90;;;4.80;99.90;;;;;;5005241;28;20203;-84
2023/12/22 10:39:39;;;;;;;2.27;1.00;;;4.80;99.90;;;;;;4999420;28;20227;-84
2023/12/22 10:42:08;;;;;;;0.70;0.70;;;4.80;99.90;;;;;;5007373;28;20210;-83
2023/12/22 10:44:35;;;;;;;1.13;0.73;;;4.70;99.90;;;;;;5003960;28;20203;-83
2023/12/22 10:47:02;;;;;;;1.00;0.90;;;4.70;99.90;;;;;;5006660;28;20289;-87
2023/12/22 10:49:29;;;;;;;3.37;1.00;;;4.80;99.90;;;;;;5012315;28;20211;-84
2023/12/22 10:51:56;;;;;;;1.37;0.90;;;4.80;99.90;;;;;;5004615;28;20204;-84
2023/12/22 10:54:23;;;;;;;1.53;1.30;;;4.70;99.90;;;;;;5009954;28;20203;-85
2023/12/22 10:56:50;;;;;;;1.90;1.20;;;4.80;99.90;;;;;;5009746;28;20206;-83
2023/12/22 10:59:20;;;;;;;2.70;1.17;;;4.80;99.90;;;;;;5007232;28;20696;-84
2023/12/22 11:01:52;;;;;;;2.20;1.30;;;4.90;99.90;;;;;;5010651;28;20222;-84
2023/12/22 11:04:22;;;;;;;3.63;1.30;;;5.00;99.90;;;;;;5008602;28;20223;-84
2023/12/22 11:06:53;;;;;;;4.13;1.37;;;5.20;99.90;;;;;;5008487;28;20195;-84
2023/12/22 11:09:24;;;;;;;2.03;1.30;;;5.40;99.90;;;;;;5009485;28;20203;-84
2023/12/22 11:11:52;;;;;;;5.40;1.50;;;5.50;99.90;;;;;;5009988;28;20204;-84
2023/12/22 11:14:22;;;;;;;4.90;1.50;;;5.60;99.90;;;;;;5005453;28;20207;-85
2023/12/22 11:16:50;;;;;;;4.03;1.30;;;5.70;99.90;;;;;;5001941;28;20719;-85
2023/12/22 11:19:19;;;;;;;4.07;1.40;;;5.70;99.90;;;;;;5008419;28;20633;-85
2023/12/22 11:21:47;;;;;;;3.83;1.40;;;5.70;99.90;;;;;;5007768;28;20199;-92
2023/12/22 11:24:15;;;;;;;2.40;1.20;;;5.70;99.90;;;;;;5011088;28;20199;-84
2023/12/22 11:26:43;;;;;;;5.60;1.60;;;5.70;99.90;;;;;;5009582;28;20668;-90
2023/12/22 11:29:11;;;;;;;2.60;1.37;;;5.60;99.90;;;;;;5013169;28;20199;-90
2023/12/22 11:31:40;;;;;;;3.63;1.53;;;5.70;99.90;;;;;;5010622;28;20195;-84
2023/12/22 11:34:09;;;;;;;4.10;1.23;;;5.70;99.90;;;;;;5012134;28;20250;-85
2023/12/22 11:36:39;;;;;;;5.37;1.30;;;5.70;99.90;;;;;;5007584;28;20196;-85
2023/12/22 11:39:06;;;;;;;3.03;1.40;;;5.80;99.90;;;;;;5005899;28;20231;-82
2023/12/22 11:41:40;;;;;;;2.63;1.27;;;5.70;99.90;;;;;;5008487;28;20207;-84
2023/12/22 11:44:07;;;;;;;2.10;1.17;;;5.70;99.90;;;;;;4998918;28;20680;-85
2023/12/22 11:46:34;;;;;;;4.27;1.50;;;5.70;99.90;;;;;;5008282;28;20192;-86
2023/12/22 11:49:03;;;;;;;1.97;1.37;;;5.70;99.90;;;;;;5007877;28;20725;-85
2023/12/22 11:51:35;;;;;;;2.93;1.23;;;5.80;99.90;;;;;;5010794;28;20214;-86
2023/12/22 11:54:02;;;;;;;2.83;1.73;;;5.80;99.90;;;;;;5002981;28;20800;-85
2023/12/22 11:56:30;;;;;;;2.93;1.10;;;5.70;99.90;;;;;;5006124;28;20202;-84
2023/12/22 11:58:58;;;;;;;2.60;1.10;;;5.70;99.90;;;;;;5011267;28;20229;-84
2023/12/22 12:01:29;;;;;;;3.47;1.70;;;5.70;99.90;;;;;;5000983;28;20222;-84
2023/12/22 12:03:58;;;;;;;3.10;1.70;;;5.60;99.90;;;;;;5005328;28;20230;-84
2023/12/22 12:06:36;;;;;;;2.37;1.47;;;5.60;99.90;;;;;;5004353;28;20211;-84
2023/12/22 12:09:05;;;;;;;3.17;1.50;;;5.60;99.90;;;;;;5008956;28;20326;-85
2023/12/22 12:12:10;;;;;;;4.17;1.40;;;5.60;99.90;;;;;;5000002;28;20196;-86
2023/12/22 12:14:42;;;;;;;3.17;1.40;;;5.70;99.90;;;;;;5001006;28;20278;-86
2023/12/22 12:17:10;;;;;;;2.93;1.90;;;5.70;99.90;;;;;;5005725;28;20652;-92
2023/12/22 12:19:39;;;;;;;3.00;1.40;;;5.80;99.90;;;;;;5002838;28;20223;-88
2023/12/22 12:22:08;;;;;;;3.03;1.70;;;5.70;99.90;;;;;;5005345;28;20204;-88
2023/12/22 12:24:37;;;;;;;6.10;1.63;;;5.80;99.90;;;;;;5005559;28;20560;-88
2023/12/22 12:27:04;;;;;;;4.87;1.70;;;5.90;99.90;;;;;;5009571;28;20210;-85
2023/12/22 12:29:33;;;;;;;2.37;1.37;;;5.80;99.90;;;;;;5010281;28;20199;-85
2023/12/22 12:32:05;;;;;;;3.37;1.20;;;5.80;99.90;;;;;;5002710;28;20202;-87
2023/12/22 12:34:32;;;;;;;2.40;1.60;;;5.80;99.90;;;;;;5004332;28;20214;-87
2023/12/22 12:36:59;;;;;;;4.63;1.50;;;5.70;99.90;;;;;;5003342;28;20279;-85
2023/12/22 12:39:31;;;;;;;4.80;1.67;;;5.80;99.90;;;;;;5008901;28;20233;-86
2023/12/22 12:42:01;;;;;;;2.93;1.40;;;5.80;99.90;;;;;;5004416;28;20281;-87
2023/12/22 12:44:28;;;;;;;3.07;1.30;;;5.80;99.90;;;;;;5007476;28;20219;-88
2023/12/22 12:46:55;;;;;;;4.37;1.50;;;5.80;99.90;;;;;;5010824;28;20214;-84
2023/12/22 12:49:26;;;;;;;3.10;1.40;;;5.80;99.90;;;;;;4998183;28;20523;-84
2023/12/22 12:51:53;;;;;;;3.77;1.40;;;5.90;99.90;;;;;;5002770;28;20207;-86
2023/12/22 12:54:21;;;;;;;2.93;1.40;;;5.90;99.90;;;;;;5008041;28;20206;-87
2023/12/22 12:56:49;;;;;;;3.37;1.70;;;5.90;99.90;;;;;;5005936;28;20203;-88
2023/12/22 12:59:18;;;;;;;7.03;1.50;;;5.90;99.90;;;;;;5004921;28;20269;-86
2023/12/22 13:01:46;;;;;;;3.00;1.30;;;5.90;99.90;;;;;;5004868;28;20681;-88